createdAt,value
2019-05-18T00:00:10.363Z,78.95
2019-05-18T00:02:43.198Z,78.90
2019-05-18T00:05:12.089Z,79.17
2019-05-18T00:07:40.581Z,79.34
2019-05-18T00:10:09.448Z,79.26
2019-05-18T00:12:38.075Z,79.88
2019-05-18T00:15:07.632Z,79.97
2019-05-18T00:17:36.104Z,79.49
2019-05-18T00:20:09.419Z,79.41
2019-05-18T00:22:37.842Z,79.47
2019-05-18T00:25:07.339Z,79.38
2019-05-18T00:27:39.991Z,79.33
2019-05-18T00:30:12.867Z,79.73
2019-05-18T00:32:41.293Z,80.56
2019-05-18T00:35:09.940Z,80.01
2019-05-18T00:37:42.399Z,79.60
2019-05-18T00:40:13.943Z,79.82
2019-05-18T00:42:42.409Z,79.75
2019-05-18T00:45:13.868Z,79.50
2019-05-18T00:47:42.751Z,79.51
2019-05-18T00:50:11.745Z,79.37
2019-05-18T00:52:40.240Z,79.70
2019-05-18T00:55:09.306Z,79.75
2019-05-18T00:57:37.833Z,79.72
2019-05-18T01:00:10.639Z,79.86
2019-05-18T01:02:41.573Z,79.95
2019-05-18T01:05:11.229Z,79.79
2019-05-18T01:07:39.712Z,79.70
2019-05-18T01:10:11.051Z,79.23
2019-05-18T01:12:39.659Z,79.74
2019-05-18T01:15:10.238Z,79.82
2019-05-18T01:17:38.640Z,79.77
2019-05-18T01:20:07.535Z,79.55
2019-05-18T01:22:35.952Z,79.02
2019-05-18T01:25:05.145Z,78.98
2019-05-18T01:27:36.103Z,79.47
2019-05-18T01:30:07.352Z,79.39
2019-05-18T01:32:38.188Z,79.48
2019-05-18T01:35:12.179Z,79.21
2019-05-18T01:37:43.334Z,79.34
2019-05-18T01:40:14.979Z,79.12
2019-05-18T01:42:44.482Z,79.12
2019-05-18T01:45:17.611Z,79.36
2019-05-18T01:47:43.424Z,79.14
2019-05-18T01:50:13.422Z,78.90
2019-05-18T01:52:45.884Z,78.82
2019-05-18T01:55:15.099Z,79.05
2019-05-18T01:57:43.555Z,78.86
2019-05-18T02:00:12.728Z,79.03
2019-05-18T02:02:41.158Z,79.02
2019-05-18T02:05:11.725Z,79.03
2019-05-18T02:07:40.144Z,79.19
2019-05-18T02:10:10.883Z,78.88
2019-05-18T02:12:42.980Z,78.72
2019-05-18T02:15:12.076Z,78.72
2019-05-18T02:17:42.924Z,78.82
2019-05-18T02:20:11.951Z,78.65
2019-05-18T02:22:40.374Z,78.66
2019-05-18T02:25:10.271Z,78.26
2019-05-18T02:27:38.759Z,78.50
2019-05-18T02:30:17.936Z,78.54
2019-05-18T02:32:41.993Z,78.44
2019-05-18T02:35:10.758Z,78.46
2019-05-18T02:37:39.173Z,78.48
2019-05-18T02:40:10.349Z,78.48
2019-05-18T02:42:42.244Z,78.75
2019-05-18T02:45:10.861Z,78.81
2019-05-18T02:47:44.827Z,78.65
2019-05-18T02:50:13.516Z,78.83
2019-05-18T02:52:41.991Z,78.70
2019-05-18T02:55:11.062Z,78.85
2019-05-18T02:57:39.495Z,78.78
2019-05-18T03:00:11.348Z,78.83
2019-05-18T03:02:39.761Z,79.12
2019-05-18T03:05:08.746Z,79.16
2019-05-18T03:07:38.254Z,79.26
2019-05-18T03:10:07.685Z,79.83
2019-05-18T03:12:39.998Z,79.39
2019-05-18T03:15:09.573Z,79.34
2019-05-18T03:17:40.702Z,79.29
2019-05-18T03:20:12.840Z,79.08
2019-05-18T03:22:42.358Z,80.04
2019-05-18T03:25:11.453Z,79.97
2019-05-18T03:27:42.255Z,79.96
2019-05-18T03:30:11.227Z,79.81
2019-05-18T03:32:39.673Z,79.88
2019-05-18T03:35:08.336Z,79.51
2019-05-18T03:37:36.846Z,79.59
2019-05-18T03:40:11.660Z,79.23
2019-05-18T03:42:42.011Z,79.38
2019-05-18T03:45:10.764Z,79.25
2019-05-18T03:47:45.670Z,79.37
2019-05-18T03:50:14.154Z,79.07
2019-05-18T03:52:45.688Z,79.29
2019-05-18T03:55:14.349Z,79.62
2019-05-18T03:57:46.491Z,80.51
2019-05-18T04:00:15.554Z,80.22
2019-05-18T04:02:43.947Z,80.29
2019-05-18T04:05:12.570Z,80.37
2019-05-18T04:07:43.503Z,80.41
2019-05-18T04:10:17.874Z,80.70
2019-05-18T04:12:46.315Z,80.24
2019-05-18T04:15:25.851Z,79.87
2019-05-18T04:17:54.326Z,79.89
2019-05-18T04:20:22.755Z,79.81
2019-05-18T04:22:51.182Z,79.75
2019-05-18T04:25:19.613Z,79.62
2019-05-18T04:27:48.033Z,79.64
2019-05-18T04:30:16.909Z,79.72
2019-05-18T04:32:47.978Z,80.32
2019-05-18T04:35:17.510Z,80.09
2019-05-18T04:37:48.276Z,79.97
2019-05-18T04:40:17.727Z,79.70
2019-05-18T04:42:46.118Z,79.37
2019-05-18T04:45:17.694Z,78.99
2019-05-18T04:47:48.869Z,78.62
2019-05-18T04:50:17.810Z,79.35
2019-05-18T04:52:46.240Z,78.66
2019-05-18T04:55:17.453Z,77.93
2019-05-18T04:57:46.933Z,77.84
2019-05-18T05:00:16.978Z,77.43
2019-05-18T05:02:45.443Z,77.20
2019-05-18T05:05:14.010Z,76.88
2019-05-18T05:07:45.116Z,77.13
2019-05-18T05:10:20.052Z,76.94
2019-05-18T05:12:48.477Z,76.50
2019-05-18T05:15:18.239Z,76.00
2019-05-18T05:17:49.381Z,75.72
2019-05-18T05:20:20.125Z,75.05
2019-05-18T05:22:49.037Z,75.17
2019-05-18T05:25:23.882Z,75.26
2019-05-18T05:27:52.292Z,75.17
2019-05-18T05:30:20.748Z,75.49
2019-05-18T05:32:52.948Z,75.31
2019-05-18T05:35:21.346Z,75.23
2019-05-18T05:37:49.767Z,74.47
2019-05-18T05:40:21.236Z,74.08
2019-05-18T05:42:49.700Z,74.31
2019-05-18T05:45:18.320Z,74.15
2019-05-18T05:47:48.849Z,74.12
2019-05-18T05:50:18.463Z,73.65
2019-05-18T05:52:46.900Z,73.23
2019-05-18T05:55:16.275Z,73.12
2019-05-18T05:57:45.712Z,72.48
2019-05-18T06:00:15.249Z,71.93
2019-05-18T06:02:43.666Z,69.33
2019-05-18T06:05:14.844Z,68.12
2019-05-18T06:07:44.305Z,66.04
2019-05-18T06:10:13.178Z,64.95
2019-05-18T06:12:46.985Z,63.51
2019-05-18T06:15:20.728Z,61.93
2019-05-18T06:17:49.144Z,58.70
2019-05-18T06:20:18.649Z,57.80
2019-05-18T06:22:47.133Z,57.08
2019-05-18T06:25:15.535Z,54.11
2019-05-18T06:27:45.006Z,50.92
2019-05-18T06:30:17.525Z,52.07
2019-05-18T06:32:46.000Z,50.42
2019-05-18T06:35:14.540Z,47.09
2019-05-18T06:37:43.030Z,46.78
2019-05-18T06:40:12.137Z,44.29
2019-05-18T06:42:40.543Z,43.81
2019-05-18T06:45:11.270Z,45.17
2019-05-18T06:47:39.696Z,46.05
2019-05-18T06:50:12.817Z,45.20
2019-05-18T06:52:41.072Z,45.68
2019-05-18T06:55:13.360Z,47.26
2019-05-18T06:57:42.812Z,48.67
2019-05-18T07:00:17.542Z,51.47
2019-05-18T07:02:47.008Z,53.74
2019-05-18T07:05:21.914Z,54.52
2019-05-18T07:07:55.730Z,55.13
2019-05-18T07:10:23.526Z,54.59
2019-05-18T07:12:51.967Z,51.43
2019-05-18T07:15:20.652Z,48.24
2019-05-18T07:17:49.107Z,43.55
2019-05-18T07:20:21.718Z,42.80
2019-05-18T07:22:51.786Z,43.30
2019-05-18T07:25:24.494Z,41.01
2019-05-18T07:27:54.602Z,38.79
2019-05-18T07:30:23.017Z,37.87
2019-05-18T07:32:51.441Z,36.20
2019-05-18T07:35:28.859Z,36.32
2019-05-18T07:37:56.313Z,35.87
2019-05-18T07:40:24.746Z,37.09
2019-05-18T07:42:53.158Z,37.38
2019-05-18T07:45:21.598Z,40.06
2019-05-18T07:47:51.065Z,42.19
2019-05-18T07:50:22.967Z,43.69
2019-05-18T07:52:51.431Z,44.83
2019-05-18T07:57:47.753Z,48.51
2019-05-18T08:00:16.852Z,49.61
2019-05-18T08:02:45.295Z,51.22
2019-05-18T08:05:14.138Z,52.38
2019-05-18T08:07:50.539Z,50.59
2019-05-18T08:10:39.135Z,48.58
2019-05-18T08:13:10.514Z,45.26
2019-05-18T08:15:40.121Z,45.40
2019-05-18T08:18:10.142Z,46.70
2019-05-18T08:20:38.556Z,45.24
2019-05-18T08:23:07.052Z,44.57
2019-05-18T08:25:37.573Z,46.33
2019-05-18T08:28:08.732Z,45.95
2019-05-18T08:30:37.212Z,44.93
2019-05-18T08:33:05.717Z,46.15
2019-05-18T08:35:34.150Z,46.66
2019-05-18T08:38:02.607Z,46.06
2019-05-18T08:40:32.060Z,47.69
2019-05-18T08:43:00.528Z,49.23
2019-05-18T08:45:29.122Z,48.57
2019-05-18T08:47:57.570Z,49.36
2019-05-18T08:50:27.110Z,50.54
2019-05-18T08:52:56.669Z,50.57
2019-05-18T08:55:29.216Z,53.84
2019-05-18T08:57:57.635Z,54.32
2019-05-18T09:00:26.121Z,54.85
2019-05-18T09:02:54.517Z,55.74
2019-05-18T09:05:23.097Z,51.69
2019-05-18T09:07:51.483Z,51.26
2019-05-18T09:10:20.283Z,50.97
2019-05-18T09:12:48.707Z,53.18
2019-05-18T09:15:17.766Z,53.71
2019-05-18T09:17:47.577Z,53.66
2019-05-18T09:20:19.112Z,51.85
2019-05-18T09:22:47.534Z,53.65
2019-05-18T09:25:16.304Z,53.48
2019-05-18T09:27:45.983Z,55.44
2019-05-18T09:30:16.016Z,55.82
2019-05-18T09:32:44.418Z,51.55
2019-05-18T09:35:16.034Z,52.33
2019-05-18T09:37:44.936Z,52.21
2019-05-18T09:40:13.647Z,52.29
2019-05-18T09:42:42.975Z,54.53
2019-05-18T09:45:12.526Z,56.48
2019-05-18T09:47:40.967Z,55.42
2019-05-18T09:50:10.493Z,53.70
2019-05-18T09:52:46.611Z,55.64
2019-05-18T09:55:09.279Z,55.14
2019-05-18T09:57:37.780Z,55.64
2019-05-18T10:00:11.869Z,58.08
2019-05-18T10:02:40.512Z,55.78
2019-05-18T10:05:09.321Z,58.00
2019-05-18T10:07:37.801Z,55.29
2019-05-18T10:10:07.993Z,56.71
2019-05-18T10:12:36.903Z,54.30
2019-05-18T10:15:09.287Z,55.40
2019-05-18T10:17:37.732Z,56.09
2019-05-18T10:20:10.728Z,53.35
2019-05-18T10:22:53.518Z,54.46
2019-05-18T10:25:10.725Z,57.86
2019-05-18T10:27:39.169Z,56.84
2019-05-18T10:30:09.214Z,53.71
2019-05-18T10:32:40.289Z,54.34
2019-05-18T10:35:09.187Z,56.56
2019-05-18T10:37:37.751Z,54.84
2019-05-18T10:40:09.010Z,55.96
2019-05-18T10:42:37.452Z,55.55
2019-05-18T10:45:07.808Z,56.00
2019-05-18T10:47:37.183Z,57.23
2019-05-18T10:50:09.614Z,57.82
2019-05-18T10:52:38.033Z,54.59
2019-05-18T10:55:11.784Z,54.71
2019-05-18T10:57:40.268Z,54.71
2019-05-18T11:03:06.082Z,53.66
2019-05-18T11:05:34.507Z,56.20
2019-05-18T11:08:06.965Z,54.46
2019-05-18T11:10:40.955Z,55.09
2019-05-18T11:13:09.397Z,51.80
2019-05-18T11:15:37.818Z,53.75
2019-05-18T11:18:08.995Z,54.66
2019-05-18T11:20:37.477Z,55.90
2019-05-18T11:23:05.896Z,55.21
2019-05-18T11:25:36.456Z,52.75
2019-05-18T11:28:06.812Z,53.28
2019-05-18T11:30:35.265Z,53.74
2019-05-18T11:33:07.308Z,54.92
2019-05-18T11:35:35.736Z,53.24
2019-05-18T11:38:04.332Z,53.73
2019-05-18T11:40:32.834Z,53.72
2019-05-18T11:43:01.291Z,51.97
2019-05-18T11:45:30.994Z,52.42
2019-05-18T11:47:59.435Z,52.02
2019-05-18T11:50:28.042Z,52.88
2019-05-18T11:52:56.408Z,52.36
2019-05-18T11:55:24.817Z,50.90
2019-05-18T11:57:54.155Z,50.20
2019-05-18T12:00:24.352Z,52.88
2019-05-18T12:02:52.810Z,49.47
2019-05-18T12:05:21.246Z,52.62
2019-05-18T12:07:49.657Z,51.90
2019-05-18T12:10:20.770Z,52.28
2019-05-18T12:12:49.285Z,53.13
2019-05-18T12:15:22.270Z,54.39
2019-05-18T12:17:50.761Z,51.61
2019-05-18T12:20:23.562Z,50.12
2019-05-18T12:22:52.013Z,51.15
2019-05-18T12:25:20.611Z,53.18
2019-05-18T12:27:50.034Z,51.72
2019-05-18T12:30:19.165Z,50.06
2019-05-18T12:32:47.581Z,48.03
2019-05-18T12:35:16.544Z,48.59
2019-05-18T12:37:45.906Z,48.31
2019-05-18T12:40:17.726Z,50.15
2019-05-18T12:42:46.132Z,51.04
2019-05-18T12:45:15.430Z,50.43
2019-05-18T12:47:45.193Z,48.06
2019-05-18T12:50:15.922Z,49.97
2019-05-18T12:52:44.357Z,50.42
2019-05-18T12:55:13.747Z,48.99
2019-05-18T12:57:42.186Z,50.37
2019-05-18T13:00:13.058Z,52.18
2019-05-18T13:02:41.553Z,51.73
2019-05-18T13:05:10.538Z,53.70
2019-05-18T13:07:39.646Z,49.98
2019-05-18T13:10:11.242Z,48.89
2019-05-18T13:12:40.726Z,48.94
2019-05-18T13:15:11.190Z,48.44
2019-05-18T13:17:39.707Z,49.38
2019-05-18T13:20:09.352Z,48.45
2019-05-18T13:22:37.759Z,48.33
2019-05-18T13:25:10.827Z,48.74
2019-05-18T13:27:40.243Z,49.27
2019-05-18T13:30:10.596Z,48.30
2019-05-18T13:32:39.307Z,50.91
2019-05-18T13:35:10.760Z,52.57
2019-05-18T13:37:39.193Z,51.19
2019-05-18T13:40:09.126Z,51.11
2019-05-18T13:42:38.507Z,48.57
2019-05-18T13:45:07.989Z,50.00
2019-05-18T13:47:36.401Z,47.80
2019-05-18T13:50:07.021Z,47.08
2019-05-18T13:52:40.052Z,47.84
2019-05-18T13:55:09.910Z,48.82
2019-05-18T13:57:38.345Z,50.80
2019-05-18T14:00:08.289Z,50.32
2019-05-18T14:02:42.270Z,49.70
2019-05-18T14:05:19.009Z,52.39
2019-05-18T14:07:47.499Z,51.56
2019-05-18T14:10:16.231Z,53.84
2019-05-18T14:12:44.681Z,52.78
2019-05-18T14:15:15.014Z,49.64
2019-05-18T14:17:43.420Z,51.94
2019-05-18T14:20:12.189Z,52.25
2019-05-18T14:22:40.594Z,50.39
2019-05-18T14:25:19.396Z,52.78
2019-05-18T14:27:40.793Z,49.94
2019-05-18T14:30:10.080Z,51.69
2019-05-18T14:32:39.552Z,52.11
2019-05-18T14:35:08.668Z,52.11
2019-05-18T14:37:37.133Z,48.97
2019-05-18T14:40:09.154Z,53.17
2019-05-18T14:42:37.621Z,51.12
2019-05-18T14:45:08.642Z,50.56
2019-05-18T14:47:37.090Z,50.61
2019-05-18T14:50:06.375Z,51.52
2019-05-18T14:52:34.772Z,48.25
2019-05-18T14:55:04.711Z,48.46
2019-05-18T14:57:33.323Z,50.79
2019-05-18T15:00:02.568Z,49.59
2019-05-18T15:02:31.625Z,49.99
2019-05-18T15:05:00.077Z,51.06
2019-05-18T15:07:28.459Z,53.09
2019-05-18T15:09:56.872Z,53.09
2019-05-18T15:12:25.297Z,54.34
2019-05-18T15:14:54.396Z,54.43
2019-05-18T15:17:22.853Z,54.68
2019-05-18T15:19:51.292Z,53.30
2019-05-18T15:22:19.802Z,53.13
2019-05-18T15:24:48.209Z,53.12
2019-05-18T15:27:16.648Z,53.38
2019-05-18T15:29:45.098Z,50.86
2019-05-18T15:32:13.525Z,49.07
2019-05-18T15:34:41.961Z,50.23
2019-05-18T15:37:10.365Z,50.91
2019-05-18T15:39:42.583Z,51.16
2019-05-18T15:42:10.246Z,50.70
2019-05-18T15:44:38.643Z,48.85
2019-05-18T15:47:07.126Z,50.82
2019-05-18T15:49:35.638Z,51.76
2019-05-18T15:52:04.031Z,51.59
2019-05-18T15:54:36.173Z,51.69
2019-05-18T15:57:02.634Z,52.00
2019-05-18T15:59:31.109Z,50.87
2019-05-18T16:02:00.674Z,49.66
2019-05-18T16:04:29.097Z,51.10
2019-05-18T16:07:01.263Z,51.00
2019-05-18T16:09:29.678Z,50.08
2019-05-18T16:12:02.102Z,50.98
2019-05-18T16:14:30.530Z,49.61
2019-05-18T16:16:58.995Z,49.54
2019-05-18T16:19:34.766Z,50.48
2019-05-18T16:22:03.583Z,49.28
2019-05-18T16:24:33.239Z,51.78
2019-05-18T16:27:01.650Z,50.71
2019-05-18T16:29:30.089Z,50.70
2019-05-18T16:31:58.504Z,51.88
2019-05-18T16:34:26.910Z,53.01
2019-05-18T16:36:55.342Z,54.52
2019-05-18T16:39:23.794Z,55.11
2019-05-18T16:41:52.198Z,54.99
2019-05-18T16:44:20.633Z,53.35
2019-05-18T16:46:49.068Z,53.83
2019-05-18T16:49:19.442Z,54.24
2019-05-18T16:51:47.929Z,53.99
2019-05-18T16:54:16.335Z,55.28
2019-05-18T16:56:44.765Z,55.28
2019-05-18T16:59:13.224Z,54.93
2019-05-18T17:01:42.732Z,54.51
2019-05-18T17:04:11.200Z,56.67
2019-05-18T17:06:39.602Z,55.25
2019-05-18T17:09:08.124Z,56.12
2019-05-18T17:11:36.539Z,55.75
2019-05-18T17:14:05.038Z,56.37
2019-05-18T17:16:33.507Z,56.56
2019-05-18T17:19:05.965Z,57.80
2019-05-18T17:21:34.406Z,57.36
2019-05-18T17:24:02.826Z,57.01
2019-05-18T17:26:31.255Z,58.35
2019-05-18T17:28:59.676Z,58.64
2019-05-18T17:31:28.090Z,59.26
2019-05-18T17:33:59.409Z,59.16
2019-05-18T17:36:27.831Z,59.37
2019-05-18T17:38:56.272Z,58.63
2019-05-18T17:41:24.758Z,59.63
2019-05-18T17:43:53.177Z,59.35
2019-05-18T17:46:21.605Z,59.56
2019-05-18T17:48:50.027Z,59.67
2019-05-18T17:51:18.448Z,60.77
2019-05-18T17:53:46.886Z,61.28
2019-05-18T17:56:15.319Z,61.48
2019-05-18T17:58:43.735Z,61.18
2019-05-18T18:01:12.194Z,59.50
2019-05-18T18:03:44.751Z,60.20
2019-05-18T18:06:13.171Z,61.09
2019-05-18T18:08:41.593Z,60.91
2019-05-18T18:11:11.884Z,60.21
2019-05-18T18:13:40.309Z,60.67
2019-05-18T18:16:08.801Z,59.88
2019-05-18T18:18:38.285Z,59.07
2019-05-18T18:21:11.322Z,59.70
2019-05-18T18:23:39.912Z,58.91
2019-05-18T18:26:08.312Z,58.36
2019-05-18T18:28:36.735Z,58.93
2019-05-18T18:31:05.221Z,58.60
2019-05-18T18:33:33.703Z,58.68
2019-05-18T18:36:02.105Z,59.62
2019-05-18T18:38:32.912Z,59.79
2019-05-18T18:41:00.685Z,60.01
2019-05-18T18:43:31.620Z,59.92
2019-05-18T18:46:00.044Z,60.21
2019-05-18T18:48:28.489Z,61.37
2019-05-18T18:50:56.943Z,61.41
2019-05-18T18:53:25.414Z,60.77
2019-05-18T18:55:54.687Z,60.70
2019-05-18T18:58:23.094Z,62.39
2019-05-18T19:00:51.547Z,63.12
2019-05-18T19:03:19.967Z,62.84
2019-05-18T19:05:48.379Z,63.17
2019-05-18T19:08:16.839Z,63.94
2019-05-18T19:10:45.271Z,64.99
2019-05-18T19:13:13.684Z,64.79
2019-05-18T19:15:42.135Z,66.36
2019-05-18T19:18:10.563Z,65.92
2019-05-18T19:20:39.024Z,66.89
2019-05-18T19:23:07.608Z,66.72
2019-05-18T19:25:36.066Z,66.84
2019-05-18T19:28:04.472Z,67.91
2019-05-18T19:30:33.848Z,68.40
2019-05-18T19:33:02.328Z,69.43
2019-05-18T19:35:30.709Z,69.76
2019-05-18T19:37:59.114Z,69.22
2019-05-18T19:40:28.025Z,69.50
2019-05-18T19:42:56.448Z,69.76
2019-05-18T19:45:25.539Z,70.03
2019-05-18T19:47:53.983Z,70.25
2019-05-18T19:50:22.397Z,70.44
2019-05-18T19:52:50.825Z,70.57
2019-05-18T19:55:19.238Z,70.57
2019-05-18T19:57:47.652Z,70.93
2019-05-18T20:00:16.759Z,71.19
2019-05-18T20:02:47.831Z,71.49
2019-05-18T20:05:16.606Z,71.62
2019-05-18T20:07:45.049Z,70.83
2019-05-18T20:10:14.831Z,71.42
2019-05-18T20:12:43.857Z,71.68
2019-05-18T20:15:12.947Z,71.85
2019-05-18T20:17:41.450Z,71.53
2019-05-18T20:20:11.772Z,71.60
2019-05-18T20:22:42.744Z,72.15
2019-05-18T20:25:11.470Z,72.84
2019-05-18T20:27:39.894Z,72.59
2019-05-18T20:30:10.454Z,72.53
2019-05-18T20:32:39.030Z,72.70
2019-05-18T20:35:07.744Z,72.83
2019-05-18T20:37:36.200Z,73.35
2019-05-18T20:40:08.447Z,73.06
2019-05-18T20:42:37.645Z,73.54
2019-05-18T20:45:06.818Z,73.66
2019-05-18T20:47:35.306Z,73.36
2019-05-18T20:50:04.988Z,73.77
2019-05-18T20:52:33.391Z,73.90
2019-05-18T20:55:06.283Z,74.68
2019-05-18T20:57:34.739Z,75.10
2019-05-18T21:00:03.272Z,75.14
2019-05-18T21:02:32.486Z,74.99
2019-05-18T21:05:00.902Z,75.06
2019-05-18T21:07:29.319Z,75.21
2019-05-18T21:09:58.823Z,75.12
2019-05-18T21:12:27.253Z,75.35
2019-05-18T21:14:55.657Z,74.94
2019-05-18T21:17:24.165Z,75.31
2019-05-18T21:19:54.725Z,75.38
2019-05-18T21:22:23.137Z,75.94
2019-05-18T21:24:51.545Z,75.52
2019-05-18T21:27:20.470Z,75.70
2019-05-18T21:29:48.949Z,75.97
2019-05-18T21:32:24.545Z,76.23
2019-05-18T21:34:52.988Z,76.31
2019-05-18T21:37:21.407Z,76.77
2019-05-18T21:39:49.842Z,76.95
2019-05-18T21:42:20.718Z,77.04
2019-05-18T21:44:49.159Z,77.18
2019-05-18T21:47:18.497Z,77.30
2019-05-18T21:49:46.940Z,77.30
2019-05-18T21:52:18.286Z,77.30
2019-05-18T21:54:46.724Z,77.43
2019-05-18T21:57:15.191Z,77.39
2019-05-18T21:59:43.660Z,77.00
2019-05-18T22:02:12.302Z,76.80
2019-05-18T22:04:51.057Z,77.16
2019-05-18T22:07:19.270Z,77.51
2019-05-18T22:09:48.629Z,77.56
2019-05-18T22:12:17.034Z,77.65
2019-05-18T22:14:45.491Z,77.63
2019-05-18T22:17:13.909Z,77.63
2019-05-18T22:19:43.457Z,77.51
2019-05-18T22:22:12.822Z,77.47
2019-05-18T22:24:42.257Z,77.23
2019-05-18T22:27:10.721Z,77.42
2019-05-18T22:29:41.929Z,77.62
2019-05-18T22:32:10.362Z,78.07
2019-05-18T22:34:41.916Z,78.40
2019-05-18T22:37:08.971Z,78.40
2019-05-18T22:39:42.461Z,79.26
2019-05-18T22:42:11.442Z,79.34
2019-05-18T22:44:39.875Z,79.23
2019-05-18T22:47:09.112Z,79.37
2019-05-18T22:49:41.034Z,79.51
2019-05-18T22:52:09.485Z,79.79
2019-05-18T22:54:39.004Z,79.48
2019-05-18T22:57:07.448Z,79.59
2019-05-18T22:59:35.882Z,80.06
2019-05-18T23:02:06.306Z,80.10
2019-05-18T23:04:38.580Z,80.18
2019-05-18T23:07:11.956Z,80.44
2019-05-18T23:09:40.397Z,80.27
2019-05-18T23:12:19.895Z,80.67
2019-05-18T23:14:48.655Z,81.05
2019-05-18T23:17:18.193Z,80.78
2019-05-18T23:19:46.613Z,80.80
2019-05-18T23:22:15.157Z,80.81
2019-05-18T23:24:43.606Z,80.72
2019-05-18T23:27:12.010Z,80.32
2019-05-18T23:29:43.184Z,80.26
2019-05-18T23:32:11.540Z,80.53
2019-05-18T23:34:40.007Z,80.50
2019-05-18T23:37:08.416Z,80.39
2019-05-18T23:39:36.879Z,80.70
2019-05-18T23:42:05.483Z,80.70
2019-05-18T23:44:34.956Z,80.61
2019-05-18T23:47:05.928Z,80.76
2019-05-18T23:49:34.374Z,80.63
2019-05-18T23:52:02.836Z,80.80
2019-05-18T23:54:31.279Z,80.98
2019-05-18T23:56:59.711Z,80.86
2019-05-18T23:59:28.172Z,81.12
